createdAt,value
2022-10-23T00:01:22.931Z,16.02
2022-10-23T00:03:52.708Z,16.85
2022-10-23T00:06:20.359Z,17.60
2022-10-23T00:08:48.303Z,16.80
2022-10-23T00:11:16.854Z,16.20
2022-10-23T00:13:46.418Z,18.80
2022-10-23T00:16:14.252Z,17.15
2022-10-23T00:18:41.865Z,17.25
2022-10-23T00:21:10.221Z,17.90
2022-10-23T00:23:37.694Z,18.65
2022-10-23T00:26:05.771Z,16.70
2022-10-23T00:28:33.322Z,18.00
2022-10-23T00:31:04.012Z,15.93
2022-10-23T00:33:31.483Z,15.48
2022-10-23T00:35:58.979Z,17.75
2022-10-23T00:38:26.434Z,17.55
2022-10-23T00:40:53.933Z,17.58
2022-10-23T00:43:22.264Z,18.02
2022-10-23T00:45:49.702Z,20.30
2022-10-23T00:48:19.046Z,19.15
2022-10-23T00:50:47.455Z,17.30
2022-10-23T00:53:15.167Z,19.27
2022-10-23T00:55:46.710Z,19.08
2022-10-23T00:58:14.711Z,17.58
2022-10-23T01:00:44.449Z,17.77
2022-10-23T01:03:12.084Z,18.60
2022-10-23T01:05:45.065Z,19.27
2022-10-23T01:08:16.391Z,16.52
2022-10-23T01:10:46.005Z,18.55
2022-10-23T01:13:16.155Z,19.95
2022-10-23T01:15:45.722Z,18.48
2022-10-23T01:18:17.875Z,18.55
2022-10-23T01:20:47.849Z,18.35
2022-10-23T01:23:42.121Z,19.13
2022-10-23T01:26:19.337Z,18.83
2022-10-23T01:28:50.855Z,17.75
2022-10-23T01:31:19.802Z,18.42
2022-10-23T01:33:49.830Z,18.38
2022-10-23T01:36:18.063Z,19.02
2022-10-23T01:38:47.526Z,18.33
2022-10-23T01:41:17.288Z,19.92
2022-10-23T01:43:46.342Z,19.20
2022-10-23T01:46:17.199Z,19.30
2022-10-23T01:48:48.860Z,19.33
2022-10-23T01:51:17.045Z,21.60
2022-10-23T01:53:45.563Z,20.30
2022-10-23T01:56:15.945Z,19.38
2022-10-23T01:58:45.209Z,20.00
2022-10-23T02:01:14.032Z,20.00
2022-10-23T02:03:44.066Z,22.00
2022-10-23T02:06:11.746Z,20.98
2022-10-23T02:08:39.256Z,21.25
2022-10-23T02:11:08.908Z,20.95
2022-10-23T02:13:39.930Z,19.67
2022-10-23T02:16:12.447Z,21.02
2022-10-23T02:18:45.323Z,20.40
2022-10-23T02:21:15.003Z,19.42
2022-10-23T02:23:46.460Z,20.80
2022-10-23T02:26:17.055Z,20.88
2022-10-23T02:28:47.079Z,20.13
2022-10-23T02:31:17.380Z,20.85
2022-10-23T02:33:45.512Z,21.52
2022-10-23T02:36:14.783Z,21.67
2022-10-23T02:38:43.324Z,21.35
2022-10-23T02:41:17.682Z,21.58
2022-10-23T02:46:16.682Z,21.77
2022-10-23T02:48:46.873Z,22.20
2022-10-23T02:51:19.097Z,22.65
2022-10-23T02:53:50.223Z,22.33
2022-10-23T02:56:21.641Z,22.77
2022-10-23T02:58:54.946Z,22.70
2022-10-23T03:01:23.632Z,22.10
2022-10-23T03:03:52.701Z,21.70
2022-10-23T03:06:21.520Z,22.17
2022-10-23T03:08:50.912Z,23.23
2022-10-23T03:11:18.416Z,23.98
2022-10-23T03:13:45.938Z,24.45
2022-10-23T03:16:13.391Z,23.85
2022-10-23T03:18:40.861Z,23.88
2022-10-23T03:21:08.540Z,24.85
2022-10-23T03:23:37.358Z,23.90
2022-10-23T03:26:05.644Z,23.88
2022-10-23T03:28:33.258Z,24.00
2022-10-23T03:31:02.162Z,24.88
2022-10-23T03:33:29.654Z,24.70
2022-10-23T03:35:57.126Z,26.15
2022-10-23T03:38:24.643Z,23.63
2022-10-23T03:40:53.507Z,24.85
2022-10-23T03:43:20.999Z,25.23
2022-10-23T03:45:48.512Z,24.92
2022-10-23T03:48:15.947Z,26.05
2022-10-23T03:50:43.399Z,26.15
2022-10-23T03:53:10.890Z,26.73
2022-10-23T03:55:38.346Z,27.30
2022-10-23T03:58:07.150Z,24.55
2022-10-23T04:00:34.691Z,26.25
2022-10-23T04:03:02.169Z,26.33
2022-10-23T04:05:29.636Z,25.17
2022-10-23T04:07:58.087Z,24.90
2022-10-23T04:10:25.584Z,23.83
2022-10-23T04:12:53.018Z,25.23
2022-10-23T04:15:21.807Z,23.30
2022-10-23T04:17:49.293Z,21.50
2022-10-23T04:20:16.848Z,20.65
2022-10-23T04:22:44.631Z,20.48
2022-10-23T04:25:12.363Z,20.52
2022-10-23T04:27:39.922Z,21.38
2022-10-23T04:30:08.107Z,20.42
2022-10-23T04:32:36.988Z,19.65
2022-10-23T04:35:04.832Z,18.52
2022-10-23T04:37:32.326Z,19.52
2022-10-23T04:39:59.880Z,17.60
2022-10-23T04:45:00.435Z,19.20
2022-10-23T04:47:27.938Z,17.60
2022-10-23T04:49:56.746Z,18.85
2022-10-23T04:52:24.239Z,16.38
2022-10-23T04:54:51.793Z,16.63
2022-10-23T04:57:19.282Z,15.93
2022-10-23T04:59:46.758Z,14.57
2022-10-23T05:02:14.224Z,14.70
2022-10-23T05:04:41.786Z,12.85
2022-10-23T05:07:10.665Z,13.52
2022-10-23T05:09:38.195Z,14.15
2022-10-23T05:12:05.783Z,13.57
2022-10-23T05:14:33.278Z,13.95
2022-10-23T05:17:01.809Z,15.25
2022-10-23T05:19:30.964Z,13.40
2022-10-23T05:21:58.748Z,13.90
2022-10-23T05:24:27.726Z,13.65
2022-10-23T05:26:55.322Z,13.43
2022-10-23T05:29:23.050Z,13.98
2022-10-23T05:31:51.723Z,13.65
2022-10-23T05:34:20.572Z,13.65
2022-10-23T05:36:48.202Z,13.38
2022-10-23T05:39:15.741Z,13.30
2022-10-23T05:41:44.657Z,12.90
2022-10-23T05:44:12.127Z,13.45
2022-10-23T05:46:41.651Z,13.63
2022-10-23T05:49:09.179Z,13.93
2022-10-23T05:51:37.265Z,12.90
2022-10-23T05:54:07.748Z,13.60
2022-10-23T05:56:35.406Z,13.27
2022-10-23T05:59:04.541Z,14.60
2022-10-23T06:01:32.147Z,14.32
2022-10-23T06:04:00.117Z,13.00
2022-10-23T06:06:27.675Z,13.45
2022-10-23T06:08:55.772Z,13.32
2022-10-23T06:11:23.271Z,13.93
2022-10-23T06:13:50.796Z,14.63
2022-10-23T06:16:21.203Z,13.80
2022-10-23T06:18:49.052Z,13.82
2022-10-23T06:21:17.203Z,13.82
2022-10-23T06:23:45.327Z,14.57
2022-10-23T06:26:13.921Z,14.02
2022-10-23T06:28:41.721Z,14.70
2022-10-23T06:31:09.934Z,15.65
2022-10-23T06:33:38.789Z,15.35
2022-10-23T06:36:08.273Z,13.98
2022-10-23T06:38:37.436Z,16.08
2022-10-23T06:41:07.575Z,16.10
2022-10-23T06:43:35.338Z,16.27
2022-10-23T06:46:03.695Z,15.93
2022-10-23T06:48:31.909Z,17.95
2022-10-23T06:51:01.214Z,17.90
2022-10-23T06:53:28.700Z,20.05
2022-10-23T06:55:59.552Z,25.30
2022-10-23T06:58:27.114Z,22.45
2022-10-23T07:00:54.719Z,23.65
2022-10-23T07:03:22.579Z,22.65
2022-10-23T07:05:50.073Z,20.75
2022-10-23T07:08:19.029Z,19.67
2022-10-23T07:10:48.042Z,19.17
2022-10-23T07:13:15.625Z,18.27
2022-10-23T07:15:43.291Z,17.40
2022-10-23T07:18:14.606Z,15.80
2022-10-23T07:20:42.647Z,17.23
2022-10-23T07:23:10.779Z,15.70
2022-10-23T07:25:39.818Z,15.02
2022-10-23T07:28:07.514Z,15.82
2022-10-23T07:30:35.205Z,15.80
2022-10-23T07:33:02.852Z,16.77
2022-10-23T07:35:33.001Z,15.63
2022-10-23T07:38:09.943Z,15.07
2022-10-23T07:40:38.981Z,16.30
2022-10-23T07:43:06.620Z,16.55
2022-10-23T07:45:34.360Z,15.63
2022-10-23T07:48:02.127Z,16.90
2022-10-23T07:50:29.840Z,16.70
2022-10-23T07:52:58.683Z,17.58
2022-10-23T07:55:26.549Z,16.60
2022-10-23T07:58:00.294Z,16.52
2022-10-23T08:00:27.954Z,17.27
2022-10-23T08:02:56.776Z,17.02
2022-10-23T08:05:24.531Z,16.95
2022-10-23T08:07:52.197Z,17.70
2022-10-23T08:10:19.839Z,16.20
2022-10-23T08:12:50.201Z,16.63
2022-10-23T08:15:19.236Z,17.15
2022-10-23T08:17:46.915Z,16.75
2022-10-23T08:20:14.738Z,17.63
2022-10-23T08:22:42.429Z,15.75
2022-10-23T08:25:10.547Z,16.58
2022-10-23T08:27:39.286Z,15.48
2022-10-23T08:30:07.545Z,15.20
2022-10-23T08:32:36.574Z,15.27
2022-10-23T08:35:04.286Z,15.43
2022-10-23T08:37:31.975Z,14.88
2022-10-23T08:39:59.607Z,15.68
2022-10-23T08:42:28.062Z,15.02
2022-10-23T08:45:02.856Z,14.55
2022-10-23T08:47:36.274Z,15.05
2022-10-23T08:50:08.803Z,15.85
2022-10-23T08:52:38.416Z,13.25
2022-10-23T08:55:12.274Z,14.90
2022-10-23T08:57:44.539Z,14.52
2022-10-23T09:00:15.249Z,13.88
2022-10-23T09:02:44.618Z,15.18
2022-10-23T09:05:15.937Z,13.40
2022-10-23T09:07:51.412Z,14.23
2022-10-23T09:10:37.528Z,14.07
2022-10-23T09:13:12.673Z,14.15
2022-10-23T09:15:43.469Z,15.25
2022-10-23T09:18:13.618Z,13.70
2022-10-23T09:20:45.150Z,13.57
2022-10-23T09:23:16.509Z,19.58
2022-10-23T09:25:47.143Z,16.15
2022-10-23T09:28:18.964Z,14.48
2022-10-23T09:30:46.887Z,13.20
2022-10-23T09:33:15.604Z,13.73
2022-10-23T09:35:55.370Z,13.75
2022-10-23T09:38:30.389Z,14.20
2022-10-23T09:40:59.987Z,14.68
2022-10-23T09:43:30.307Z,13.98
2022-10-23T09:45:58.761Z,13.32
2022-10-23T09:48:26.568Z,13.95
2022-10-23T09:50:56.303Z,14.10
2022-10-23T09:53:30.131Z,12.90
2022-10-23T09:55:58.965Z,13.48
2022-10-23T09:58:35.052Z,13.73
2022-10-23T10:01:21.782Z,12.80
2022-10-23T10:03:50.119Z,11.85
2022-10-23T10:06:23.222Z,12.43
2022-10-23T10:08:52.868Z,12.57
2022-10-23T10:11:24.325Z,12.00
2022-10-23T10:14:01.842Z,11.32
2022-10-23T10:19:12.132Z,12.63
2022-10-23T10:21:45.326Z,10.82
2022-10-23T10:24:19.121Z,10.55
2022-10-23T10:26:58.577Z,11.43
2022-10-23T10:29:35.703Z,10.80
2022-10-23T10:32:07.253Z,10.88
2022-10-23T10:37:30.717Z,11.98
2022-10-23T10:40:01.208Z,11.87
2022-10-23T10:42:45.671Z,11.13
2022-10-23T10:45:34.298Z,12.93
2022-10-23T10:48:13.953Z,10.98
2022-10-23T10:50:44.990Z,10.98
2022-10-23T10:53:19.411Z,10.35
2022-10-23T10:58:17.662Z,9.95
2022-10-23T11:00:51.508Z,9.90
2022-10-23T11:03:25.447Z,9.38
2022-10-23T11:05:54.660Z,7.97
2022-10-23T11:08:28.372Z,8.55
2022-10-23T11:10:58.849Z,8.40
2022-10-23T11:13:36.730Z,7.32
2022-10-23T11:16:06.936Z,7.72
2022-10-23T11:18:35.620Z,7.20
2022-10-23T11:21:10.392Z,7.55
2022-10-23T11:24:01.410Z,7.85
2022-10-23T11:26:36.726Z,7.38
2022-10-23T11:29:14.207Z,7.05
2022-10-23T11:31:46.706Z,7.88
2022-10-23T11:34:24.474Z,7.75
2022-10-23T11:36:55.991Z,7.03
2022-10-23T11:39:25.156Z,6.40
2022-10-23T11:41:55.549Z,7.57
2022-10-23T11:44:24.875Z,6.65
2022-10-23T11:47:00.776Z,6.53
2022-10-23T11:49:28.453Z,5.75
2022-10-23T11:52:02.584Z,4.90
2022-10-23T11:54:30.445Z,4.97
2022-10-23T11:57:11.965Z,4.65
2022-10-23T11:59:52.197Z,4.68
2022-10-23T12:02:24.145Z,5.03
2022-10-23T12:04:52.894Z,5.05
2022-10-23T12:07:23.531Z,4.63
2022-10-23T12:09:54.275Z,4.13
2022-10-23T12:12:31.137Z,3.90
2022-10-23T12:15:20.020Z,3.78
2022-10-23T12:17:48.635Z,3.60
2022-10-23T12:20:20.494Z,3.38
2022-10-23T12:22:51.861Z,3.33
2022-10-23T12:25:24.519Z,3.13
2022-10-23T12:27:57.756Z,3.80
2022-10-23T12:30:30.135Z,3.55
2022-10-23T12:33:12.607Z,3.00
2022-10-23T12:35:49.357Z,3.50
2022-10-23T12:38:19.039Z,3.53
2022-10-23T12:40:47.294Z,3.70
2022-10-23T12:43:26.081Z,2.97
2022-10-23T12:45:55.305Z,3.40
2022-10-23T12:48:23.615Z,3.25
2022-10-23T12:50:52.127Z,3.70
2022-10-23T12:53:20.430Z,4.05
2022-10-23T12:55:49.533Z,3.22
2022-10-23T12:58:24.271Z,2.55
2022-10-23T13:00:52.542Z,2.83
2022-10-23T13:03:21.605Z,3.17
2022-10-23T13:05:50.314Z,2.40
2022-10-23T13:08:18.925Z,3.47
2022-10-23T13:10:47.179Z,3.20
2022-10-23T13:13:15.265Z,3.90
2022-10-23T13:15:45.066Z,3.28
2022-10-23T13:18:14.239Z,2.80
2022-10-23T13:20:43.219Z,3.97
2022-10-23T13:23:12.409Z,2.45
2022-10-23T13:25:40.544Z,3.08
2022-10-23T13:28:21.410Z,3.42
2022-10-23T13:31:00.353Z,3.30
2022-10-23T13:33:32.345Z,3.20
2022-10-23T13:36:00.783Z,2.85
2022-10-23T13:38:32.598Z,3.00
2022-10-23T13:41:00.919Z,2.60
2022-10-23T13:43:30.745Z,3.30
2022-10-23T13:46:00.367Z,3.63
2022-10-23T13:48:28.327Z,3.22
2022-10-23T13:50:59.509Z,3.63
2022-10-23T13:53:27.201Z,3.72
2022-10-23T13:55:57.870Z,3.58
2022-10-23T13:58:26.472Z,3.83
2022-10-23T14:00:54.942Z,3.83
2022-10-23T14:03:24.471Z,4.55
2022-10-23T14:05:52.141Z,3.78
2022-10-23T14:08:20.387Z,4.40
2022-10-23T14:10:48.271Z,3.22
2022-10-23T14:13:16.015Z,3.58
2022-10-23T14:15:43.721Z,3.20
2022-10-23T14:18:11.481Z,3.90
2022-10-23T14:20:40.578Z,3.85
2022-10-23T14:23:08.270Z,3.83
2022-10-23T14:25:36.006Z,3.50
2022-10-23T14:28:14.086Z,4.30
2022-10-23T14:30:45.122Z,3.45
2022-10-23T14:33:13.085Z,3.47
2022-10-23T14:35:52.496Z,3.40
2022-10-23T14:38:23.511Z,3.35
2022-10-23T14:40:53.116Z,3.80
2022-10-23T14:43:20.856Z,4.20
2022-10-23T14:45:48.554Z,4.00
2022-10-23T14:48:16.307Z,4.00
2022-10-23T14:50:46.221Z,4.32
2022-10-23T14:53:13.958Z,3.97
2022-10-23T14:55:41.610Z,5.05
2022-10-23T14:58:09.371Z,3.80
2022-10-23T15:00:39.780Z,3.50
2022-10-23T15:03:07.483Z,4.03
2022-10-23T15:05:35.183Z,4.50
2022-10-23T15:08:04.278Z,4.50
2022-10-23T15:10:31.897Z,4.20
2022-10-23T15:12:59.712Z,4.03
2022-10-23T15:15:27.510Z,4.30
2022-10-23T15:17:57.056Z,4.43
2022-10-23T15:20:27.603Z,4.35
2022-10-23T15:22:55.363Z,3.97
2022-10-23T15:25:58.406Z,4.78
2022-10-23T15:28:26.188Z,4.32
2022-10-23T15:30:54.000Z,4.45
2022-10-23T15:33:22.155Z,4.90
2022-10-23T15:35:50.139Z,4.40
2022-10-23T15:38:17.967Z,4.78
2022-10-23T15:40:47.230Z,3.83
2022-10-23T15:43:14.992Z,4.75
2022-10-23T15:45:43.003Z,5.05
2022-10-23T15:48:10.871Z,4.43
2022-10-23T15:50:38.865Z,7.43
2022-10-23T15:53:06.847Z,4.63
2022-10-23T15:55:36.754Z,4.68
2022-10-23T15:58:11.596Z,5.00
2022-10-23T16:00:42.077Z,4.80
2022-10-23T16:03:09.838Z,4.28
2022-10-23T16:05:37.924Z,4.72
2022-10-23T16:08:06.668Z,4.35
2022-10-23T16:10:42.064Z,4.70
2022-10-23T16:13:11.270Z,5.25
2022-10-23T16:15:39.496Z,4.60
2022-10-23T16:18:08.967Z,4.93
2022-10-23T16:20:36.698Z,6.25
2022-10-23T16:23:04.352Z,5.25
2022-10-23T16:28:00.693Z,5.57
2022-10-23T16:30:30.050Z,5.57
2022-10-23T16:33:00.556Z,5.57
2022-10-23T16:35:31.133Z,6.45
2022-10-23T16:38:01.265Z,6.57
2022-10-23T16:40:29.049Z,6.22
2022-10-23T16:42:59.540Z,6.22
2022-10-23T16:45:27.261Z,6.68
2022-10-23T16:47:56.515Z,7.00
2022-10-23T16:50:29.342Z,6.40
2022-10-23T16:52:57.063Z,6.85
2022-10-23T16:55:24.780Z,6.10
2022-10-23T16:57:57.804Z,6.85
2022-10-23T17:00:34.946Z,6.70
2022-10-23T17:03:11.253Z,7.20
2022-10-23T17:05:39.072Z,6.57
2022-10-23T17:08:06.958Z,6.30
2022-10-23T17:10:47.580Z,6.40
2022-10-23T17:13:15.535Z,6.35
2022-10-23T17:15:43.416Z,6.47
2022-10-23T17:18:12.516Z,5.88
2022-10-23T17:20:40.154Z,5.45
2022-10-23T17:23:08.031Z,5.55
2022-10-23T17:25:37.983Z,6.57
2022-10-23T17:28:07.573Z,5.97
2022-10-23T17:30:40.025Z,6.35
2022-10-23T17:33:07.843Z,6.60
2022-10-23T17:35:37.740Z,6.53
2022-10-23T17:38:09.087Z,5.85
2022-10-23T17:40:36.791Z,6.53
2022-10-23T17:43:05.135Z,6.40
2022-10-23T17:45:35.774Z,6.35
2022-10-23T17:48:06.286Z,5.72
2022-10-23T17:50:33.833Z,8.45
2022-10-23T17:53:02.701Z,5.53
2022-10-23T17:55:30.475Z,5.82
2022-10-23T17:57:58.738Z,6.50
2022-10-23T18:00:26.422Z,6.10
2022-10-23T18:02:53.928Z,5.13
2022-10-23T18:05:21.826Z,5.68
2022-10-23T18:07:50.223Z,5.68
2022-10-23T18:10:19.083Z,5.25
2022-10-23T18:12:47.009Z,5.97
2022-10-23T18:15:14.633Z,5.95
2022-10-23T18:17:42.510Z,5.50
2022-10-23T18:20:11.989Z,6.85
2022-10-23T18:22:39.875Z,6.47
2022-10-23T18:25:10.151Z,5.63
2022-10-23T18:27:39.776Z,5.68
2022-10-23T18:30:07.867Z,5.60
2022-10-23T18:32:35.402Z,5.32
2022-10-23T18:35:03.026Z,5.25
2022-10-23T18:37:33.855Z,5.78
2022-10-23T18:40:04.432Z,5.90
2022-10-23T18:42:34.279Z,5.50
2022-10-23T18:45:03.254Z,5.20
2022-10-23T18:47:32.664Z,5.63
2022-10-23T18:50:00.219Z,5.50
2022-10-23T18:52:28.052Z,5.97
2022-10-23T18:54:55.667Z,6.38
2022-10-23T18:57:26.545Z,5.88
2022-10-23T18:59:58.284Z,5.05
2022-10-23T19:02:31.431Z,5.80
2022-10-23T19:05:00.230Z,5.40
2022-10-23T19:08:04.571Z,6.00
2022-10-23T19:10:37.124Z,5.35
2022-10-23T19:13:06.892Z,6.38
2022-10-23T19:15:35.656Z,6.05
2022-10-23T19:18:07.547Z,6.70
2022-10-23T19:20:35.058Z,5.72
2022-10-23T19:23:03.450Z,5.20
2022-10-23T19:25:32.632Z,5.63
2022-10-23T19:28:02.980Z,5.68
2022-10-23T19:30:30.920Z,5.75
2022-10-23T19:32:58.801Z,5.38
2022-10-23T19:35:27.874Z,5.78
2022-10-23T19:37:55.373Z,4.85
2022-10-23T19:40:52.998Z,5.95
2022-10-23T19:43:26.504Z,4.55
2022-10-23T19:46:00.301Z,5.13
2022-10-23T19:48:44.490Z,5.50
2022-10-23T19:51:14.020Z,4.97
2022-10-23T19:53:43.277Z,5.13
2022-10-23T19:56:15.601Z,6.22
2022-10-23T19:58:43.303Z,5.45
2022-10-23T20:01:12.208Z,4.97
2022-10-23T20:03:40.289Z,5.10
2022-10-23T20:06:09.343Z,5.57
2022-10-23T20:08:39.203Z,5.82
2022-10-23T20:11:07.372Z,4.95
2022-10-23T20:13:35.072Z,5.32
2022-10-23T20:16:02.724Z,5.55
2022-10-23T20:18:30.280Z,5.07
2022-10-23T20:20:57.944Z,5.65
2022-10-23T20:23:27.231Z,4.70
2022-10-23T20:25:56.241Z,5.03
2022-10-23T20:28:24.066Z,5.55
2022-10-23T20:30:51.637Z,5.97
2022-10-23T20:33:24.366Z,5.72
2022-10-23T20:36:00.895Z,4.95
2022-10-23T20:38:28.410Z,5.53
2022-10-23T20:41:04.164Z,5.30
2022-10-23T20:43:32.295Z,5.45
2022-10-23T20:46:05.181Z,5.18
2022-10-23T20:48:35.353Z,5.00
2022-10-23T20:51:03.536Z,5.38
2022-10-23T20:53:31.138Z,6.05
2022-10-23T20:56:06.337Z,5.85
2022-10-23T20:58:33.881Z,5.63
2022-10-23T21:01:03.645Z,6.38
2022-10-23T21:03:31.382Z,5.57
2022-10-23T21:06:05.716Z,5.80
2022-10-23T21:11:00.914Z,5.78
2022-10-23T21:13:33.397Z,5.95
2022-10-23T21:16:02.155Z,5.93
2022-10-23T21:18:44.921Z,5.78
2022-10-23T21:21:14.074Z,6.03
2022-10-23T21:23:41.587Z,5.65
2022-10-23T21:26:10.429Z,5.95
2022-10-23T21:28:41.750Z,5.40
2022-10-23T21:31:18.304Z,5.90
2022-10-23T21:33:47.059Z,5.15
2022-10-23T21:36:17.393Z,5.35
2022-10-23T21:38:45.015Z,5.20
2022-10-23T21:41:13.378Z,5.70
2022-10-23T21:43:42.268Z,6.18
2022-10-23T21:46:12.315Z,5.38
2022-10-23T21:48:39.920Z,5.47
2022-10-23T21:51:07.772Z,6.20
2022-10-23T21:53:35.580Z,5.68
2022-10-23T21:56:04.590Z,5.93
2022-10-23T21:58:32.203Z,5.43
2022-10-23T22:01:01.222Z,5.80
2022-10-23T22:03:28.868Z,5.38
2022-10-23T22:05:58.779Z,5.72
2022-10-23T22:08:26.354Z,5.45
2022-10-23T22:10:54.109Z,5.72
2022-10-23T22:13:21.607Z,6.68
2022-10-23T22:15:49.206Z,6.20
2022-10-23T22:18:18.096Z,5.20
2022-10-23T22:20:45.650Z,6.80
2022-10-23T22:23:14.402Z,5.38
2022-10-23T22:25:42.355Z,7.00
2022-10-23T22:28:11.272Z,6.43
2022-10-23T22:30:38.907Z,5.30
2022-10-23T22:33:06.490Z,5.75
2022-10-23T22:35:35.421Z,5.82
2022-10-23T22:38:02.892Z,6.45
2022-10-23T22:40:31.047Z,5.80
2022-10-23T22:43:00.164Z,5.93
2022-10-23T22:45:27.673Z,6.57
2022-10-23T22:47:55.169Z,5.93
2022-10-23T22:50:22.700Z,6.47
2022-10-23T22:52:51.556Z,5.60
2022-10-23T22:55:19.015Z,6.18
2022-10-23T22:57:46.770Z,6.60
2022-10-23T23:00:14.985Z,5.57
2022-10-23T23:02:44.669Z,6.40
2022-10-23T23:05:12.986Z,6.15
2022-10-23T23:07:40.503Z,6.10
2022-10-23T23:10:09.751Z,6.00
2022-10-23T23:12:37.963Z,5.90
2022-10-23T23:15:06.566Z,6.40
2022-10-23T23:17:34.165Z,5.82
2022-10-23T23:20:01.652Z,4.78
2022-10-23T23:22:29.153Z,5.57
2022-10-23T23:24:56.810Z,5.60
2022-10-23T23:27:27.135Z,5.25
2022-10-23T23:29:57.616Z,5.60
2022-10-23T23:32:25.138Z,5.38
2022-10-23T23:34:52.641Z,5.35
2022-10-23T23:37:20.145Z,5.65
2022-10-23T23:39:48.514Z,5.03
2022-10-23T23:42:15.990Z,5.22
2022-10-23T23:44:55.815Z,5.65
2022-10-23T23:47:30.649Z,4.75
2022-10-23T23:50:00.227Z,5.18
2022-10-23T23:52:27.746Z,5.20
2022-10-23T23:54:55.263Z,5.55
2022-10-23T23:57:22.811Z,4.93
2022-10-23T23:59:51.650Z,5.35
